Time;durP1;ratioP1;P1;durP2;ratioP2;P2;SDS_P1;SDS_P2;PMS_P1;PMS_P2;Temp;Humidity;BMP_temperature;BMP_pressure;BME280_temperature;BME280_humidity;BME280_pressure;Samples;Min_cycle;Max_cycle;Signal;HPM_P1;HPM_P2
2022/01/03 00:00:44;;;;;;;;;;;9.60;99.90;;;;;;5088440;28;19920;-77
2022/01/03 00:03:11;;;;;;;;;;;9.70;99.90;;;;;;5096133;28;19960;-76
2022/01/03 00:05:37;;;;;;;;;;;9.60;99.90;;;;;;5098826;28;19915;-76
2022/01/03 00:08:04;;;;;;;;;;;9.60;99.90;;;;;;5078076;28;20368;-77
2022/01/03 00:10:30;;;;;;;;;;;9.60;99.90;;;;;;5061948;28;19912;-77
2022/01/03 00:12:55;;;;;;;;;;;9.60;99.90;;;;;;5080084;28;19958;-77
2022/01/03 00:15:21;;;;;;;;;;;9.50;99.90;;;;;;5095975;28;19948;-76
2022/01/03 00:17:48;;;;;;;;;;;9.50;99.90;;;;;;5073303;28;19919;-76
2022/01/03 00:20:14;;;;;;;;;;;9.50;99.90;;;;;;5094112;28;19961;-76
2022/01/03 00:22:48;;;;;;;;;;;9.40;99.90;;;;;;5074861;28;20014;-76
2022/01/03 00:25:16;;;;;;;;;;;9.40;99.90;;;;;;5095363;28;19920;-76
2022/01/03 00:27:46;;;;;;;;;;;9.40;99.90;;;;;;5077670;28;19920;-77
2022/01/03 00:30:12;;;;;;;;;;;9.30;99.90;;;;;;5073825;28;19962;-77
2022/01/03 00:32:42;;;;;;;;;;;9.40;99.90;;;;;;5076208;28;19955;-77
2022/01/03 00:35:08;;;;;;;;;;;9.40;99.90;;;;;;5073175;28;20218;-78
2022/01/03 00:37:34;;;;;;;;;;;9.40;99.90;;;;;;5091323;28;19965;-77
2022/01/03 00:40:00;;;;;;;;;;;9.30;99.90;;;;;;5077611;28;20006;-77
2022/01/03 00:42:26;;;;;;;;;;;9.30;99.90;;;;;;5077418;28;19920;-77
2022/01/03 00:44:52;;;;;;;;;;;9.30;99.90;;;;;;5086743;28;19928;-76
2022/01/03 00:47:18;;;;;;;;;;;9.30;99.90;;;;;;5076433;28;20262;-76
2022/01/03 00:49:44;;;;;;;;;;;9.20;99.90;;;;;;5092255;28;19916;-78
2022/01/03 00:52:10;;;;;;;;;;;9.20;99.90;;;;;;5087404;28;19912;-77
2022/01/03 00:54:35;;;;;;;;;;;9.20;99.90;;;;;;5086806;28;19912;-77
2022/01/03 00:57:02;;;;;;;;;;;9.20;99.90;;;;;;5076064;28;19927;-77
2022/01/03 00:59:32;;;;;;;;;;;9.10;99.90;;;;;;5064872;28;19916;-77
2022/01/03 01:01:59;;;;;;;;;;;9.20;99.90;;;;;;5074670;28;20026;-77
2022/01/03 01:04:24;;;;;;;;;;;9.20;99.90;;;;;;5072327;28;19916;-78
2022/01/03 01:06:54;;;;;;;;;;;9.10;99.90;;;;;;5089888;28;19918;-77
2022/01/03 01:09:20;;;;;;;;;;;9.10;99.90;;;;;;5079694;28;19998;-77
2022/01/03 01:11:46;;;;;;;;;;;9.20;99.90;;;;;;5084248;28;19919;-77
2022/01/03 01:14:12;;;;;;;;;;;9.10;99.90;;;;;;5079996;28;19912;-77
2022/01/03 01:16:38;;;;;;;;;;;9.20;99.90;;;;;;5071227;28;19950;-77
2022/01/03 01:19:04;;;;;;;;;;;9.10;99.90;;;;;;5094507;28;19947;-76
2022/01/03 01:21:30;;;;;;;;;;;9.10;99.90;;;;;;5059143;28;19920;-76
2022/01/03 01:23:57;;;;;;;;;;;9.10;99.90;;;;;;5072981;28;19916;-77
2022/01/03 01:29:07;;;;;;;;;;;9.10;99.90;;;;;;5092037;28;20308;-78
2022/01/03 01:31:39;;;;;;;;;;;9.10;99.90;;;;;;5073572;28;19912;-77
2022/01/03 01:34:06;;;;;;;;;;;9.10;99.90;;;;;;5076147;28;20378;-77
2022/01/03 01:36:32;;;;;;;;;;;9.10;99.90;;;;;;5094853;28;19920;-77
2022/01/03 01:39:09;;;;;;;;;;;9.10;99.90;;;;;;5081638;28;20334;-76
2022/01/03 01:41:38;;;;;;;;;;;9.10;99.90;;;;;;5066872;28;19953;-78
2022/01/03 01:44:07;;;;;;;;;;;9.10;99.90;;;;;;5086849;28;19912;-76
2022/01/03 01:46:33;;;;;;;;;;;9.10;99.90;;;;;;5096954;28;19919;-76
2022/01/03 01:49:01;;;;;;;;;;;9.00;99.90;;;;;;5087580;28;20296;-76
2022/01/03 01:51:26;;;;;;;;;;;9.10;99.90;;;;;;5075181;28;19958;-76
2022/01/03 01:53:53;;;;;;;;;;;9.00;99.90;;;;;;5088221;28;19914;-81
2022/01/03 01:56:20;;;;;;;;;;;9.00;99.90;;;;;;5087515;28;19919;-78
2022/01/03 01:58:49;;;;;;;;;;;9.00;99.90;;;;;;5081305;28;19957;-77
2022/01/03 02:01:15;;;;;;;;;;;9.00;99.90;;;;;;5072892;28;19934;-77
2022/01/03 02:03:47;;;;;;;;;;;9.00;99.90;;;;;;5088474;28;20003;-76
2022/01/03 02:06:29;;;;;;;;;;;8.90;99.90;;;;;;5072331;28;19920;-77
2022/01/03 02:09:03;;;;;;;;;;;8.90;99.90;;;;;;5086952;28;19919;-77
2022/01/03 02:11:37;;;;;;;;;;;8.90;99.90;;;;;;5076573;28;19919;-77
2022/01/03 02:14:04;;;;;;;;;;;8.90;99.90;;;;;;5094405;28;19935;-76
2022/01/03 02:16:32;;;;;;;;;;;8.90;99.90;;;;;;5086797;28;20329;-76
2022/01/03 02:18:57;;;;;;;;;;;8.90;99.90;;;;;;5094522;28;19958;-77
2022/01/03 02:21:23;;;;;;;;;;;8.90;99.90;;;;;;5094409;28;19955;-76
2022/01/03 02:23:48;;;;;;;;;;;8.90;99.90;;;;;;5082425;28;19920;-78
2022/01/03 02:26:14;;;;;;;;;;;9.00;99.90;;;;;;5077810;28;20298;-76
2022/01/03 02:28:39;;;;;;;;;;;9.00;99.90;;;;;;5096892;28;19913;-76
2022/01/03 02:31:05;;;;;;;;;;;9.00;99.90;;;;;;5090599;28;19998;-77
2022/01/03 02:33:32;;;;;;;;;;;9.00;99.90;;;;;;5098111;28;20011;-76
2022/01/03 02:35:58;;;;;;;;;;;9.00;99.90;;;;;;5079939;28;20329;-77
2022/01/03 02:38:24;;;;;;;;;;;8.90;99.90;;;;;;5078881;28;19912;-76
2022/01/03 02:40:49;;;;;;;;;;;8.90;99.90;;;;;;5098286;28;19931;-76
2022/01/03 02:43:15;;;;;;;;;;;9.00;99.90;;;;;;5093602;28;20030;-76
2022/01/03 02:45:41;;;;;;;;;;;9.00;99.90;;;;;;5078309;28;19931;-77
2022/01/03 02:48:07;;;;;;;;;;;8.90;99.90;;;;;;5086893;28;19916;-76
2022/01/03 02:50:34;;;;;;;;;;;8.90;99.90;;;;;;5076738;28;19913;-75
2022/01/03 02:52:59;;;;;;;;;;;8.90;99.90;;;;;;5078150;28;20295;-77
2022/01/03 02:55:26;;;;;;;;;;;8.90;99.90;;;;;;5093344;28;19945;-76
2022/01/03 02:57:52;;;;;;;;;;;8.90;99.90;;;;;;5096565;28;19996;-77
2022/01/03 03:00:29;;;;;;;;;;;8.90;99.90;;;;;;5075266;28;20239;-76
2022/01/03 03:02:55;;;;;;;;;;;8.90;99.90;;;;;;5073019;28;19961;-77
2022/01/03 03:05:20;;;;;;;;;;;8.90;99.90;;;;;;5078260;28;19916;-76
2022/01/03 03:07:46;;;;;;;;;;;9.00;99.90;;;;;;5079133;28;19916;-76
2022/01/03 03:10:13;;;;;;;;;;;9.00;99.90;;;;;;5097296;28;20368;-76
2022/01/03 03:12:39;;;;;;;;;;;9.00;99.90;;;;;;5079380;28;20045;-76
2022/01/03 03:15:05;;;;;;;;;;;9.00;99.90;;;;;;5097425;28;20002;-75
2022/01/03 03:17:31;;;;;;;;;;;9.00;99.90;;;;;;5085096;28;19916;-76
2022/01/03 03:19:58;;;;;;;;;;;9.00;99.90;;;;;;5094415;28;20250;-76
2022/01/03 03:22:24;;;;;;;;;;;9.00;99.90;;;;;;5091186;28;19969;-76
2022/01/03 03:24:50;;;;;;;;;;;9.00;99.90;;;;;;5081660;28;19957;-75
2022/01/03 03:27:16;;;;;;;;;;;9.00;99.90;;;;;;5076340;28;20261;-76
2022/01/03 03:29:46;;;;;;;;;;;9.00;99.90;;;;;;5090578;28;19912;-75
2022/01/03 03:32:12;;;;;;;;;;;9.00;99.90;;;;;;5088703;28;19967;-76
2022/01/03 03:34:37;;;;;;;;;;;9.00;99.90;;;;;;5064429;28;19947;-76
2022/01/03 03:37:03;;;;;;;;;;;9.00;99.90;;;;;;5059221;28;19982;-76
2022/01/03 03:39:30;;;;;;;;;;;9.00;99.90;;;;;;5069043;28;19919;-76
2022/01/03 03:41:55;;;;;;;;;;;9.00;99.90;;;;;;5062406;28;19920;-77
2022/01/03 03:44:21;;;;;;;;;;;9.00;99.90;;;;;;5084425;28;19926;-77
2022/01/03 03:46:46;;;;;;;;;;;9.00;99.90;;;;;;5093029;28;19965;-76
2022/01/03 03:49:12;;;;;;;;;;;8.90;99.90;;;;;;5079601;28;19920;-76
2022/01/03 03:51:38;;;;;;;;;;;8.90;99.90;;;;;;5091198;28;19916;-75
2022/01/03 03:54:04;;;;;;;;;;;8.90;99.90;;;;;;5095945;28;19918;-76
2022/01/03 03:56:30;;;;;;;;;;;8.90;99.90;;;;;;5096820;28;19921;-76
2022/01/03 03:58:55;;;;;;;;;;;8.90;99.90;;;;;;5090034;28;19916;-76
2022/01/03 04:01:21;;;;;;;;;;;8.90;99.90;;;;;;5077721;28;20030;-75
2022/01/03 04:03:47;;;;;;;;;;;8.90;99.90;;;;;;5085321;28;19912;-75
2022/01/03 04:06:12;;;;;;;;;;;9.00;99.90;;;;;;5060288;28;20003;-76
2022/01/03 04:08:38;;;;;;;;;;;9.00;99.90;;;;;;5089050;28;20382;-76
2022/01/03 04:11:03;;;;;;;;;;;9.00;99.90;;;;;;5096270;28;20336;-76
2022/01/03 04:13:29;;;;;;;;;;;8.90;99.90;;;;;;5091999;28;19916;-76
2022/01/03 04:15:54;;;;;;;;;;;8.90;99.90;;;;;;5073682;28;19909;-77
2022/01/03 04:18:20;;;;;;;;;;;9.00;99.90;;;;;;5077325;28;19955;-76
2022/01/03 04:20:46;;;;;;;;;;;9.00;99.90;;;;;;5096500;28;19962;-76
2022/01/03 04:23:11;;;;;;;;;;;8.90;99.90;;;;;;5087555;28;19920;-76
2022/01/03 04:25:37;;;;;;;;;;;8.90;99.90;;;;;;5095636;28;19912;-76
2022/01/03 04:28:02;;;;;;;;;;;8.90;99.90;;;;;;5078032;28;19973;-77
2022/01/03 04:30:28;;;;;;;;;;;8.80;99.90;;;;;;5091436;28;19912;-76
2022/01/03 04:32:53;;;;;;;;;;;8.80;99.90;;;;;;5071750;28;20007;-77
2022/01/03 04:35:19;;;;;;;;;;;8.80;99.90;;;;;;5095540;28;19919;-77
2022/01/03 04:37:45;;;;;;;;;;;8.80;99.90;;;;;;5096114;28;19958;-76
2022/01/03 04:40:11;;;;;;;;;;;8.80;99.90;;;;;;5077112;28;19919;-77
2022/01/03 04:42:36;;;;;;;;;;;8.80;99.90;;;;;;5095483;28;19927;-76
2022/01/03 04:45:02;;;;;;;;;;;8.80;99.90;;;;;;5088889;28;19920;-77
2022/01/03 04:47:28;;;;;;;;;;;8.70;99.90;;;;;;5093702;28;19950;-76
2022/01/03 04:49:53;;;;;;;;;;;8.70;99.90;;;;;;5095578;28;19912;-77
2022/01/03 04:52:19;;;;;;;;;;;8.70;99.90;;;;;;5090376;28;19962;-76
2022/01/03 04:54:45;;;;;;;;;;;8.60;99.90;;;;;;5095436;28;19912;-77
2022/01/03 04:57:10;;;;;;;;;;;8.60;99.90;;;;;;5077546;28;20311;-76
2022/01/03 04:59:36;;;;;;;;;;;8.70;99.90;;;;;;5090388;28;20349;-77
2022/01/03 05:02:03;;;;;;;;;;;8.70;99.90;;;;;;5095195;28;19920;-77
2022/01/03 05:04:29;;;;;;;;;;;8.70;99.90;;;;;;5093161;28;19916;-77
2022/01/03 05:06:55;;;;;;;;;;;8.70;99.90;;;;;;5064511;28;19942;-76
2022/01/03 05:09:20;;;;;;;;;;;8.60;99.90;;;;;;5091687;28;19931;-77
2022/01/03 05:11:46;;;;;;;;;;;8.70;99.90;;;;;;5077333;28;20311;-77
2022/01/03 05:14:12;;;;;;;;;;;8.70;99.90;;;;;;5082942;28;19961;-77
2022/01/03 05:16:37;;;;;;;;;;;8.70;99.90;;;;;;5076905;28;19913;-76
2022/01/03 05:19:03;;;;;;;;;;;8.70;99.90;;;;;;5076972;28;19912;-76
2022/01/03 05:21:29;;;;;;;;;;;8.60;99.90;;;;;;5090444;28;19915;-76
2022/01/03 05:23:54;;;;;;;;;;;8.60;99.90;;;;;;5090448;28;19916;-76
2022/01/03 05:26:20;;;;;;;;;;;8.60;99.90;;;;;;5079035;28;20427;-76
2022/01/03 05:28:47;;;;;;;;;;;8.50;99.90;;;;;;5098711;28;20230;-77
2022/01/03 05:31:13;;;;;;;;;;;8.60;99.90;;;;;;5086707;28;19951;-77
2022/01/03 05:33:39;;;;;;;;;;;8.60;99.90;;;;;;5099868;28;19912;-76
2022/01/03 05:36:05;;;;;;;;;;;8.50;99.90;;;;;;5106036;28;19961;-77
2022/01/03 05:38:31;;;;;;;;;;;8.50;99.90;;;;;;5106992;28;19912;-77
2022/01/03 05:40:56;;;;;;;;;;;8.50;99.90;;;;;;5079047;28;20260;-77
2022/01/03 05:43:22;;;;;;;;;;;8.50;99.90;;;;;;5106784;28;19924;-77
2022/01/03 05:45:47;;;;;;;;;;;8.50;99.90;;;;;;5089342;28;19919;-76
2022/01/03 05:48:13;;;;;;;;;;;8.60;99.90;;;;;;5104795;28;20022;-77
2022/01/03 05:50:38;;;;;;;;;;;8.70;99.90;;;;;;5087113;28;19981;-76
2022/01/03 05:53:04;;;;;;;;;;;8.60;99.90;;;;;;5107384;28;19912;-76
2022/01/03 05:55:29;;;;;;;;;;;8.70;99.90;;;;;;5084923;28;20295;-76
2022/01/03 05:57:55;;;;;;;;;;;8.70;99.90;;;;;;5102628;28;19912;-77
2022/01/03 06:00:23;;;;;;;;;;;8.70;99.90;;;;;;5088816;28;20338;-77
2022/01/03 06:02:53;;;;;;;;;;;8.70;99.90;;;;;;5081780;28;19916;-76
2022/01/03 06:08:03;;;;;;;;;;;8.80;99.90;;;;;;5110551;28;19912;-77
2022/01/03 06:10:28;;;;;;;;;;;8.80;99.90;;;;;;5110114;28;20337;-76
2022/01/03 06:12:54;;;;;;;;;;;8.80;99.90;;;;;;5113633;28;19996;-76
2022/01/03 06:15:24;;;;;;;;;;;8.80;99.90;;;;;;5109292;28;20014;-77
2022/01/03 06:17:50;;;;;;;;;;;8.80;99.90;;;;;;5110669;28;19941;-77
2022/01/03 06:20:16;;;;;;;;;;;8.80;99.90;;;;;;5110794;28;19916;-77
2022/01/03 06:22:42;;;;;;;;;;;8.80;99.90;;;;;;5115177;28;19930;-76
2022/01/03 06:25:08;;;;;;;;;;;8.70;99.90;;;;;;5091466;28;19991;-77
2022/01/03 06:27:34;;;;;;;;;;;8.80;99.90;;;;;;5102225;28;19965;-77
2022/01/03 06:29:59;;;;;;;;;;;8.80;99.90;;;;;;5087771;28;19916;-77
2022/01/03 06:32:25;;;;;;;;;;;8.70;99.90;;;;;;5071320;28;20322;-76
2022/01/03 06:34:52;;;;;;;;;;;8.70;99.90;;;;;;5090520;28;20003;-77
2022/01/03 06:37:18;;;;;;;;;;;8.70;99.90;;;;;;5069702;28;19923;-77
2022/01/03 06:39:44;;;;;;;;;;;8.70;99.90;;;;;;5060754;28;19917;-76
2022/01/03 06:42:09;;;;;;;;;;;8.70;99.90;;;;;;5084245;28;19942;-77
2022/01/03 06:44:35;;;;;;;;;;;8.80;99.90;;;;;;5074545;28;19916;-76
2022/01/03 06:47:00;;;;;;;;;;;8.80;99.90;;;;;;5064499;28;20451;-76
2022/01/03 06:49:26;;;;;;;;;;;8.80;99.90;;;;;;5077326;28;19925;-76
2022/01/03 06:51:52;;;;;;;;;;;8.90;99.90;;;;;;5077641;28;19959;-76
2022/01/03 06:54:17;;;;;;;;;;;8.90;99.90;;;;;;5068294;28;20322;-77
2022/01/03 06:56:43;;;;;;;;;;;8.80;99.90;;;;;;5077333;28;19923;-76
2022/01/03 06:59:09;;;;;;;;;;;8.90;99.90;;;;;;5077246;28;20365;-75
2022/01/03 07:01:35;;;;;;;;;;;8.80;99.90;;;;;;5075596;28;19913;-77
2022/01/03 07:04:00;;;;;;;;;;;8.80;99.90;;;;;;5071183;28;19923;-77
2022/01/03 07:06:27;;;;;;;;;;;8.80;99.90;;;;;;5075878;28;20331;-77
2022/01/03 07:08:53;;;;;;;;;;;8.70;99.90;;;;;;5071203;28;19920;-77
2022/01/03 07:11:19;;;;;;;;;;;8.70;99.90;;;;;;5071479;28;19916;-76
2022/01/03 07:13:49;;;;;;;;;;;8.70;99.90;;;;;;5078030;28;19913;-76
2022/01/03 07:19:00;;;;;;;;;;;8.70;99.90;;;;;;5076493;28;20398;-76
2022/01/03 07:21:30;;;;;;;;;;;8.70;99.90;;;;;;5076862;28;19913;-76
2022/01/03 07:23:56;;;;;;;;;;;8.70;99.90;;;;;;5069334;28;19916;-77
2022/01/03 07:26:22;;;;;;;;;;;8.70;99.90;;;;;;5068541;28;20416;-76
2022/01/03 07:28:48;;;;;;;;;;;8.70;99.90;;;;;;5080679;28;20460;-76
2022/01/03 07:31:13;;;;;;;;;;;8.70;99.90;;;;;;5085558;28;19916;-76
2022/01/03 07:33:39;;;;;;;;;;;8.70;99.90;;;;;;5092026;28;20308;-76
2022/01/03 07:36:04;;;;;;;;;;;8.70;99.90;;;;;;5076054;28;19944;-76
2022/01/03 07:38:30;;;;;;;;;;;8.70;99.90;;;;;;5091685;28;19919;-76
2022/01/03 07:40:57;;;;;;;;;;;8.70;99.90;;;;;;5089520;28;19986;-76
2022/01/03 07:43:22;;;;;;;;;;;8.70;99.90;;;;;;5102118;28;20331;-75
2022/01/03 07:45:48;;;;;;;;;;;8.80;99.90;;;;;;5109529;28;19915;-76
2022/01/03 07:48:13;;;;;;;;;;;8.80;99.90;;;;;;5079051;28;20615;-76
2022/01/03 07:50:39;;;;;;;;;;;8.80;99.90;;;;;;5078970;28;20231;-76
2022/01/03 07:53:05;;;;;;;;;;;8.90;99.90;;;;;;5109495;28;20211;-75
2022/01/03 07:55:30;;;;;;;;;;;8.90;99.90;;;;;;5106084;28;20311;-75
2022/01/03 07:57:56;;;;;;;;;;;8.90;99.90;;;;;;5088401;28;20045;-77
2022/01/03 08:00:21;;;;;;;;;;;9.00;99.90;;;;;;5089949;28;20206;-77
2022/01/03 08:02:47;;;;;;;;;;;9.00;99.90;;;;;;5099392;28;19923;-76
2022/01/03 08:05:14;;;;;;;;;;;9.00;99.90;;;;;;5088900;28;19912;-76
2022/01/03 08:07:41;;;;;;;;;;;9.00;99.90;;;;;;5080077;28;19920;-76
2022/01/03 08:10:07;;;;;;;;;;;9.00;99.90;;;;;;5091124;28;19916;-77
2022/01/03 08:12:33;;;;;;;;;;;9.00;99.90;;;;;;5103860;28;19961;-75
2022/01/03 08:14:59;;;;;;;;;;;9.00;99.90;;;;;;5079188;28;20007;-77
2022/01/03 08:17:25;;;;;;;;;;;9.10;99.90;;;;;;5074304;28;19920;-77
2022/01/03 08:19:51;;;;;;;;;;;9.00;99.90;;;;;;5099771;28;19916;-76
2022/01/03 08:22:17;;;;;;;;;;;9.00;99.90;;;;;;5086749;28;19930;-75
2022/01/03 08:24:43;;;;;;;;;;;9.00;99.90;;;;;;5085918;28;20210;-76
2022/01/03 08:27:09;;;;;;;;;;;9.00;99.90;;;;;;5100646;28;19916;-76
2022/01/03 08:29:34;;;;;;;;;;;9.00;99.90;;;;;;5103522;28;19916;-76
2022/01/03 08:32:00;;;;;;;;;;;9.00;99.90;;;;;;5086611;28;19923;-76
2022/01/03 08:34:26;;;;;;;;;;;9.00;99.90;;;;;;5102691;28;20007;-76
2022/01/03 08:36:51;;;;;;;;;;;9.00;99.90;;;;;;5056408;28;20357;-77
2022/01/03 08:39:17;;;;;;;;;;;9.00;99.90;;;;;;5097504;28;20010;-77
2022/01/03 08:41:42;;;;;;;;;;;8.90;99.90;;;;;;5075876;28;19934;-76
2022/01/03 08:44:19;;;;;;;;;;;8.90;99.90;;;;;;5096641;28;19939;-77
2022/01/03 08:46:50;;;;;;;;;;;8.90;99.90;;;;;;5074327;28;20318;-76
2022/01/03 08:49:16;;;;;;;;;;;8.90;99.90;;;;;;5096123;28;19920;-77
2022/01/03 08:51:42;;;;;;;;;;;8.90;99.90;;;;;;5093967;28;20268;-76
2022/01/03 08:54:08;;;;;;;;;;;9.00;99.90;;;;;;5096137;28;19923;-77
2022/01/03 08:56:34;;;;;;;;;;;9.00;99.90;;;;;;5097142;28;19943;-77
2022/01/03 08:58:59;;;;;;;;;;;9.00;99.90;;;;;;5077710;28;19962;-77
2022/01/03 09:01:25;;;;;;;;;;;9.00;99.90;;;;;;5094923;28;19957;-77
2022/01/03 09:03:51;;;;;;;;;;;9.00;99.90;;;;;;5076981;28;19920;-76
2022/01/03 09:06:17;;;;;;;;;;;9.00;99.90;;;;;;5094846;28;19912;-77
2022/01/03 09:08:43;;;;;;;;;;;9.10;99.90;;;;;;5076154;28;19916;-78
2022/01/03 09:11:09;;;;;;;;;;;9.10;99.90;;;;;;5076242;28;19912;-77
2022/01/03 09:13:35;;;;;;;;;;;9.10;99.90;;;;;;5078592;28;20218;-77
2022/01/03 09:16:06;;;;;;;;;;;9.20;99.90;;;;;;5095132;28;19923;-75
2022/01/03 09:18:32;;;;;;;;;;;9.10;99.90;;;;;;5077340;28;20283;-75
2022/01/03 09:20:58;;;;;;;;;;;9.20;99.90;;;;;;5074409;28;19912;-77
2022/01/03 09:23:28;;;;;;;;;;;9.20;99.90;;;;;;5075394;28;19923;-77
2022/01/03 09:28:56;;;;;;;;;;;9.30;99.90;;;;;;5087754;28;19955;-77
2022/01/03 09:31:24;;;;;;;;;;;9.30;99.90;;;;;;5088097;28;19927;-77
2022/01/03 09:33:51;;;;;;;;;;;9.30;99.90;;;;;;5078665;28;19915;-76
2022/01/03 09:36:16;;;;;;;;;;;9.30;99.90;;;;;;5093348;28;19934;-77
2022/01/03 09:38:42;;;;;;;;;;;9.40;99.90;;;;;;5066776;28;20443;-77
2022/01/03 09:41:08;;;;;;;;;;;9.40;99.90;;;;;;5090508;28;19959;-77
2022/01/03 09:43:44;;;;;;;;;;;9.40;99.90;;;;;;5084340;28;20495;-76
2022/01/03 09:46:11;;;;;;;;;;;9.40;99.90;;;;;;5075974;28;19934;-77
2022/01/03 09:48:37;;;;;;;;;;;9.50;99.90;;;;;;5078239;28;19969;-77
2022/01/03 09:51:04;;;;;;;;;;;9.50;99.90;;;;;;5093342;28;20314;-76
2022/01/03 09:53:32;;;;;;;;;;;9.50;99.90;;;;;;5094043;28;19915;-76
2022/01/03 09:55:57;;;;;;;;;;;9.50;99.90;;;;;;5076066;28;20334;-77
2022/01/03 09:58:23;;;;;;;;;;;9.60;99.90;;;;;;5094295;28;19920;-76
2022/01/03 10:00:49;;;;;;;;;;;9.70;99.90;;;;;;5095084;28;19912;-77
2022/01/03 10:03:14;;;;;;;;;;;9.70;99.90;;;;;;5094937;28;19920;-77
2022/01/03 10:05:40;;;;;;;;;;;9.70;99.90;;;;;;5075093;28;19934;-76
2022/01/03 10:08:05;;;;;;;;;;;9.70;99.90;;;;;;5093186;28;19927;-77
2022/01/03 10:10:31;;;;;;;;;;;9.70;99.90;;;;;;5077695;28;20353;-76
2022/01/03 10:12:57;;;;;;;;;;;9.70;99.90;;;;;;5076668;28;19926;-77
2022/01/03 10:15:24;;;;;;;;;;;9.70;99.90;;;;;;5076283;28;19927;-77
2022/01/03 10:17:51;;;;;;;;;;;9.80;99.90;;;;;;5076548;28;20210;-76
2022/01/03 10:20:17;;;;;;;;;;;9.80;99.90;;;;;;5095266;28;19950;-76
2022/01/03 10:22:42;;;;;;;;;;;9.90;99.90;;;;;;5094504;28;19968;-76
2022/01/03 10:25:14;;;;;;;;;;;9.90;99.90;;;;;;5092829;28;19967;-77
2022/01/03 10:27:59;;;;;;;;;;;9.90;99.90;;;;;;5092988;28;20411;-76
2022/01/03 10:30:28;;;;;;;;;;;10.00;99.90;;;;;;5093750;28;19912;-76
2022/01/03 10:32:54;;;;;;;;;;;10.00;99.90;;;;;;5093417;28;20295;-77
2022/01/03 10:35:20;;;;;;;;;;;10.00;99.90;;;;;;5091092;28;19912;-76
2022/01/03 10:37:45;;;;;;;;;;;10.10;99.90;;;;;;5094363;28;20200;-76
2022/01/03 10:40:16;;;;;;;;;;;10.10;99.90;;;;;;5095142;28;19920;-76
2022/01/03 10:42:42;;;;;;;;;;;10.10;99.90;;;;;;5068268;28;19924;-75
2022/01/03 10:45:08;;;;;;;;;;;10.20;99.90;;;;;;5075418;28;19923;-76
2022/01/03 10:47:34;;;;;;;;;;;10.20;99.90;;;;;;5084088;28;21399;-77
2022/01/03 10:50:12;;;;;;;;;;;10.30;99.90;;;;;;5097116;28;19923;-76
2022/01/03 10:52:40;;;;;;;;;;;10.40;99.90;;;;;;5098197;28;19916;-76
2022/01/03 10:55:06;;;;;;;;;;;10.40;99.90;;;;;;5095975;28;19943;-77
2022/01/03 10:57:52;;;;;;;;;;;10.50;99.90;;;;;;5098576;28;19963;-76
2022/01/03 11:00:29;;;;;;;;;;;10.50;99.90;;;;;;5097450;28;19912;-75
2022/01/03 11:03:32;;;;;;;;;;;10.50;99.90;;;;;;5098060;28;19920;-75
2022/01/03 11:11:34;;;;;;;;;;;10.50;99.90;;;;;;5097294;28;19961;-76
2022/01/03 11:13:59;;;;;;;;;;;10.50;99.90;;;;;;5095928;28;20617;-76
2022/01/03 11:16:30;;;;;;;;;;;10.60;99.90;;;;;;5095490;28;20061;-77
2022/01/03 11:18:55;;;;;;;;;;;10.60;99.90;;;;;;5097511;28;19935;-76
2022/01/03 11:21:24;;;;;;;;;;;10.60;99.90;;;;;;5099822;28;20312;-77
2022/01/03 11:23:56;;;;;;;;;;;10.60;99.90;;;;;;5079133;28;19924;-76
2022/01/03 11:26:21;;;;;;;;;;;10.80;99.90;;;;;;5085229;28;19931;-75
2022/01/03 11:28:48;;;;;;;;;;;10.80;99.90;;;;;;5096092;28;19912;-76
2022/01/03 11:31:15;;;;;;;;;;;10.80;99.90;;;;;;5079026;28;19912;-76
2022/01/03 11:33:41;;;;;;;;;;;10.80;99.90;;;;;;5097071;28;20092;-76
2022/01/03 11:36:07;;;;;;;;;;;10.80;99.90;;;;;;5079134;28;19994;-76
2022/01/03 11:38:37;;;;;;;;;;;10.80;99.90;;;;;;5083395;28;20049;-76
2022/01/03 11:41:05;;;;;;;;;;;10.80;99.90;;;;;;5102907;28;20326;-77
2022/01/03 11:43:32;;;;;;;;;;;10.90;99.90;;;;;;5108790;28;19975;-77
2022/01/03 11:45:58;;;;;;;;;;;11.10;99.90;;;;;;5107179;28;19912;-75
2022/01/03 11:48:26;;;;;;;;;;;11.00;99.90;;;;;;5091149;28;20306;-75
2022/01/03 11:50:55;;;;;;;;;;;11.00;99.90;;;;;;5100403;28;19915;-77
2022/01/03 11:53:23;;;;;;;;;;;10.90;99.90;;;;;;5097146;28;19923;-75
2022/01/03 11:55:52;;;;;;;;;;;10.90;99.90;;;;;;5102278;28;19999;-76
2022/01/03 11:58:41;;;;;;;;;;;10.90;99.90;;;;;;5104303;28;20471;-75
2022/01/03 12:03:54;;;;;;;;;;;11.00;99.90;;;;;;5101165;28;19931;-75
2022/01/03 12:06:24;;;;;;;;;;;11.00;99.90;;;;;;5092381;28;20291;-76
2022/01/03 12:08:58;;;;;;;;;;;11.10;99.90;;;;;;5099261;28;19954;-76
2022/01/03 12:11:25;;;;;;;;;;;11.10;99.90;;;;;;5086208;28;19912;-76
2022/01/03 12:13:55;;;;;;;;;;;11.20;99.90;;;;;;5095276;28;19916;-76
2022/01/03 12:16:37;;;;;;;;;;;11.20;99.90;;;;;;5073719;28;19916;-75
2022/01/03 12:19:06;;;;;;;;;;;11.20;99.90;;;;;;5095108;28;20299;-75
2022/01/03 12:21:50;;;;;;;;;;;11.10;99.90;;;;;;5095714;28;19923;-75
2022/01/03 12:24:34;;;;;;;;;;;11.20;99.90;;;;;;5083996;28;20004;-76
2022/01/03 12:27:12;;;;;;;;;;;11.10;99.90;;;;;;5077433;28;20311;-76
2022/01/03 12:29:56;;;;;;;;;;;11.10;99.90;;;;;;5094381;28;19956;-76
2022/01/03 12:32:23;;;;;;;;;;;11.10;99.90;;;;;;5085388;28;19920;-76
2022/01/03 12:35:10;;;;;;;;;;;11.00;99.90;;;;;;5077231;28;19912;-76
2022/01/03 12:37:42;;;;;;;;;;;11.00;99.90;;;;;;5076078;28;20366;-75
2022/01/03 12:40:07;;;;;;;;;;;10.90;99.90;;;;;;5093262;28;19916;-75
2022/01/03 12:42:45;;;;;;;;;;;11.00;99.90;;;;;;5094153;28;19934;-76
2022/01/03 12:45:11;;;;;;;;;;;11.00;99.90;;;;;;5082054;28;19916;-76
2022/01/03 12:47:38;;;;;;;;;;;11.10;99.90;;;;;;5095429;28;19916;-75
2022/01/03 12:50:20;;;;;;;;;;;11.00;99.90;;;;;;5094006;28;19924;-75
2022/01/03 12:52:46;;;;;;;;;;;11.00;99.90;;;;;;5094214;28;19916;-76
2022/01/03 12:55:31;;;;;;;;;;;10.90;99.90;;;;;;5074391;28;20405;-76
2022/01/03 12:57:57;;;;;;;;;;;10.90;99.90;;;;;;5093304;28;19916;-76
2022/01/03 13:00:42;;;;;;;;;;;10.90;99.90;;;;;;5095070;28;20226;-76
2022/01/03 13:03:27;;;;;;;;;;;10.80;99.90;;;;;;5095557;28;19927;-75
2022/01/03 13:06:22;;;;;;;;;;;10.80;99.90;;;;;;5081459;28;20015;-76
2022/01/03 13:08:47;;;;;;;;;;;10.90;99.90;;;;;;5080131;28;19916;-75
2022/01/03 13:11:17;;;;;;;;;;;11.00;99.90;;;;;;5083766;28;19918;-75
2022/01/03 13:13:44;;;;;;;;;;;11.00;99.90;;;;;;5075863;28;20325;-75
2022/01/03 13:16:21;;;;;;;;;;;11.00;99.90;;;;;;5076545;28;19912;-75
2022/01/03 13:18:48;;;;;;;;;;;10.90;99.90;;;;;;5082337;28;20311;-76
2022/01/03 13:21:14;;;;;;;;;;;10.80;99.90;;;;;;5104251;28;19908;-75
2022/01/03 13:23:49;;;;;;;;;;;10.60;99.90;;;;;;5102731;28;19956;-75
2022/01/03 13:26:15;;;;;;;;;;;10.50;99.90;;;;;;5105928;28;20273;-76
2022/01/03 13:28:44;;;;;;;;;;;10.30;99.90;;;;;;5102526;28;20010;-76
2022/01/03 13:31:10;;;;;;;;;;;10.20;99.90;;;;;;5109611;28;19916;-76
2022/01/03 13:33:36;;;;;;;;;;;10.10;99.90;;;;;;5102896;28;19941;-76
2022/01/03 13:36:05;;;;;;;;;;;9.90;99.90;;;;;;5095377;28;19912;-77
2022/01/03 13:38:31;;;;;;;;;;;9.90;99.90;;;;;;5103576;28;19918;-75
2022/01/03 13:41:15;;;;;;;;;;;9.80;99.90;;;;;;5095735;28;19919;-76
2022/01/03 13:43:45;;;;;;;;;;;9.80;99.90;;;;;;5094597;28;19924;-76
2022/01/03 13:51:20;;;;;;;;;;;9.70;99.90;;;;;;5094929;28;19958;-76
2022/01/03 13:53:53;;;;;;;;;;;9.60;99.90;;;;;;5088024;28;20366;-75
2022/01/03 13:56:19;;;;;;;;;;;9.60;99.90;;;;;;5085220;28;20058;-77
2022/01/03 13:58:45;;;;;;;;;;;9.50;99.90;;;;;;5097759;28;20014;-76
2022/01/03 14:01:11;;;;;;;;;;;9.40;99.90;;;;;;5081954;28;19912;-76
2022/01/03 14:03:39;;;;;;;;;;;9.40;99.90;;;;;;5103399;28;19916;-75
2022/01/03 14:06:22;;;;;;;;;;;9.40;99.90;;;;;;5083611;28;20318;-75
2022/01/03 14:08:53;;;;;;;;;;;9.30;99.90;;;;;;5094205;28;20003;-76
2022/01/03 14:11:20;;;;;;;;;;;9.30;99.90;;;;;;5071493;28;19916;-76
2022/01/03 14:13:46;;;;;;;;;;;9.30;99.90;;;;;;5089181;28;19927;-75
2022/01/03 14:16:13;;;;;;;;;;;9.30;99.90;;;;;;5068807;28;19916;-75
2022/01/03 14:18:40;;;;;;;;;;;9.20;99.90;;;;;;5087811;28;20011;-76
2022/01/03 14:21:16;;;;;;;;;;;9.20;99.90;;;;;;5072616;28;19916;-76
2022/01/03 14:23:42;;;;;;;;;;;9.20;99.90;;;;;;5074839;28;19920;-76
2022/01/03 14:26:12;;;;;;;;;;;9.20;99.90;;;;;;5091692;28;19920;-76
2022/01/03 14:28:39;;;;;;;;;;;9.10;99.90;;;;;;5091962;28;20291;-75
2022/01/03 14:31:04;;;;;;;;;;;9.10;99.90;;;;;;5075096;28;19959;-76
2022/01/03 14:33:30;;;;;;;;;;;9.10;99.90;;;;;;5091595;28;20009;-76
2022/01/03 14:35:55;;;;;;;;;;;9.00;99.90;;;;;;5092082;28;20014;-76
2022/01/03 14:38:23;;;;;;;;;;;9.00;99.90;;;;;;5072750;28;20048;-76
2022/01/03 14:40:51;;;;;;;;;;;8.90;99.90;;;;;;5071835;28;20022;-75
2022/01/03 14:43:28;;;;;;;;;;;8.90;99.90;;;;;;5091518;28;19973;-76
2022/01/03 14:46:13;;;;;;;;;;;8.90;99.90;;;;;;5064025;28;19923;-77
2022/01/03 14:48:39;;;;;;;;;;;8.80;99.90;;;;;;5091700;28;19916;-76
2022/01/03 14:51:12;;;;;;;;;;;8.80;99.90;;;;;;5081514;28;19927;-76
2022/01/03 14:53:38;;;;;;;;;;;8.80;99.90;;;;;;5091736;28;19912;-76
2022/01/03 14:56:04;;;;;;;;;;;8.70;99.90;;;;;;5073717;28;20571;-76